Terminal Aerodrome Forecast
Issued by NWS Portland, OR

Home | Current Version | Previous Version | Text Only | Print | Product List | Glossary On
Versions: 1 2 3 4 5 6 7 8 9 10 11 12 13 14 15 16 17 18 19 20 21 22 23 24 25 26 27 28 29 30 31
000
FTUS46 KPQR 041142
TAFEUG
TAF
KEUG 041142Z 0412/0512 20005KT P6SM SCT012
     FM041300 19006KT P6SM BKN012
     FM041900 24006KT P6SM SCT300
     FM050200 28009G15KT P6SM BKN050
     FM050800 20004KT P6SM SCT030 BKN050=

USA.gov is the U.S. government's official web portal to all federal, state and local government web resources and services.